createdAt,value
2017-09-22T00:00:01.331Z,0
2017-09-22T00:01:02.061Z,0
2017-09-22T00:02:02.791Z,0
2017-09-22T00:03:03.515Z,0
2017-09-22T00:04:04.640Z,0
2017-09-22T00:05:05.381Z,0
2017-09-22T00:06:06.169Z,0
2017-09-22T00:07:06.999Z,0
2017-09-22T00:08:07.801Z,0
2017-09-22T00:09:08.999Z,0
2017-09-22T00:10:09.771Z,0
2017-09-22T00:11:10.506Z,0
2017-09-22T00:12:11.306Z,0
2017-09-22T00:13:12.041Z,0
2017-09-22T00:14:13.070Z,0
2017-09-22T00:15:13.786Z,0
2017-09-22T00:16:14.525Z,0
2017-09-22T00:17:15.286Z,0
2017-09-22T00:18:16.077Z,0
2017-09-22T00:19:17.111Z,0
2017-09-22T00:20:17.909Z,0
2017-09-22T00:21:18.649Z,0
2017-09-22T00:22:19.442Z,0
2017-09-22T00:23:20.156Z,0
2017-09-22T00:24:21.314Z,0
2017-09-22T00:25:22.045Z,0
2017-09-22T00:26:22.776Z,0
2017-09-22T00:27:23.529Z,0
2017-09-22T00:28:24.266Z,0
2017-09-22T00:29:25.432Z,0
2017-09-22T00:30:26.211Z,0
2017-09-22T00:31:26.946Z,0
2017-09-22T00:32:27.706Z,0
2017-09-22T00:33:28.505Z,0
2017-09-22T00:34:29.530Z,0
2017-09-22T00:35:30.272Z,0
2017-09-22T00:36:31.108Z,0
2017-09-22T00:37:31.833Z,0
2017-09-22T00:38:32.494Z,0
2017-09-22T00:39:33.521Z,0
2017-09-22T00:40:34.266Z,0
2017-09-22T00:41:35.025Z,0
2017-09-22T00:42:35.742Z,0
2017-09-22T00:43:36.466Z,0
2017-09-22T00:44:37.582Z,0
2017-09-22T00:45:38.304Z,0
2017-09-22T00:46:39.093Z,0
2017-09-22T00:47:39.894Z,0
2017-09-22T00:48:40.637Z,0
2017-09-22T00:49:41.687Z,0
2017-09-22T00:50:42.460Z,0
2017-09-22T00:51:43.194Z,0
2017-09-22T00:52:43.927Z,0
2017-09-22T00:53:44.645Z,0
2017-09-22T00:54:45.820Z,0
2017-09-22T00:55:46.546Z,0
2017-09-22T00:56:47.338Z,0
2017-09-22T00:57:48.085Z,0
2017-09-22T00:58:48.802Z,0
2017-09-22T00:59:49.952Z,0
2017-09-22T01:00:50.694Z,0
2017-09-22T01:01:51.428Z,0
2017-09-22T01:02:52.222Z,0
2017-09-22T01:03:53.031Z,0
2017-09-22T01:04:54.191Z,0
2017-09-22T01:05:54.935Z,0
2017-09-22T01:06:55.655Z,0
2017-09-22T01:07:56.455Z,0
2017-09-22T01:08:57.272Z,0
2017-09-22T01:09:58.045Z,0
2017-09-22T01:10:58.806Z,0
2017-09-22T01:11:59.525Z,0
2017-09-22T01:13:00.269Z,0
2017-09-22T01:14:01.056Z,0
2017-09-22T01:15:02.035Z,0
2017-09-22T01:16:02.765Z,0
2017-09-22T01:17:03.564Z,0
2017-09-22T01:18:04.333Z,0
2017-09-22T01:19:05.065Z,0
2017-09-22T01:20:06.022Z,0
2017-09-22T01:21:06.722Z,0
2017-09-22T01:22:07.535Z,0
2017-09-22T01:23:08.304Z,0
2017-09-22T01:24:09.021Z,0
2017-09-22T01:25:10.060Z,0
2017-09-22T01:26:10.782Z,0
2017-09-22T01:27:11.601Z,0
2017-09-22T01:28:12.332Z,0
2017-09-22T01:29:13.121Z,0
2017-09-22T01:30:14.194Z,0
2017-09-22T01:31:14.924Z,0
2017-09-22T01:32:15.651Z,0
2017-09-22T01:33:16.367Z,0
2017-09-22T01:34:17.101Z,0
2017-09-22T01:35:18.315Z,0
2017-09-22T01:36:19.055Z,0
2017-09-22T01:37:19.781Z,0
2017-09-22T01:38:20.516Z,0
2017-09-22T01:39:21.318Z,0
2017-09-22T01:40:22.354Z,0
2017-09-22T01:41:23.488Z,0
2017-09-22T01:42:24.161Z,0
2017-09-22T01:43:24.963Z,0
2017-09-22T01:44:25.756Z,0
2017-09-22T01:45:26.880Z,0
2017-09-22T01:46:27.600Z,0
2017-09-22T01:47:28.321Z,0
2017-09-22T01:48:29.050Z,0
2017-09-22T01:49:29.790Z,0
2017-09-22T01:50:30.718Z,0
2017-09-22T01:51:31.452Z,0
2017-09-22T01:52:32.252Z,0
2017-09-22T01:53:32.985Z,0
2017-09-22T01:54:33.701Z,0
2017-09-22T01:55:34.783Z,0
2017-09-22T01:56:35.554Z,0
2017-09-22T01:57:36.286Z,0
2017-09-22T01:58:37.024Z,0
2017-09-22T01:59:37.791Z,0
2017-09-22T02:00:38.810Z,0
2017-09-22T02:01:39.540Z,0
2017-09-22T02:02:40.262Z,0
2017-09-22T02:03:41.020Z,0
2017-09-22T02:04:41.781Z,0
2017-09-22T02:05:42.765Z,0
2017-09-22T02:06:43.491Z,0
2017-09-22T02:07:44.222Z,0
2017-09-22T02:08:44.949Z,0
2017-09-22T02:09:45.688Z,0
2017-09-22T02:10:46.688Z,0
2017-09-22T02:11:47.482Z,0
2017-09-22T02:12:48.215Z,0
2017-09-22T02:13:49.030Z,0
2017-09-22T02:14:49.797Z,0
2017-09-22T02:15:50.846Z,0
2017-09-22T02:16:51.598Z,0
2017-09-22T02:17:52.255Z,0
2017-09-22T02:18:53.054Z,0
2017-09-22T02:19:53.864Z,0
2017-09-22T02:20:54.890Z,0
2017-09-22T02:21:55.616Z,0
2017-09-22T02:22:56.340Z,0
2017-09-22T02:23:57.065Z,0
2017-09-22T02:24:57.865Z,0
2017-09-22T02:25:58.945Z,0
2017-09-22T02:26:59.679Z,0
2017-09-22T02:28:00.476Z,0
2017-09-22T02:29:01.210Z,0
2017-09-22T02:30:02.007Z,0
2017-09-22T02:31:02.825Z,0
2017-09-22T02:32:03.655Z,0
2017-09-22T02:33:04.405Z,0
2017-09-22T02:34:05.136Z,0
2017-09-22T02:35:05.865Z,0
2017-09-22T02:36:06.930Z,0
2017-09-22T02:37:07.654Z,0
2017-09-22T02:38:08.376Z,0
2017-09-22T02:39:09.091Z,0
2017-09-22T02:40:09.830Z,0
2017-09-22T02:41:10.605Z,0
2017-09-22T02:42:11.732Z,0
2017-09-22T02:43:12.542Z,0
2017-09-22T02:44:13.270Z,0
2017-09-22T02:45:13.997Z,0
2017-09-22T02:46:14.806Z,0
2017-09-22T02:47:15.532Z,0
2017-09-22T02:48:16.509Z,0
2017-09-22T02:49:17.314Z,0
2017-09-22T02:50:18.043Z,0
2017-09-22T02:51:18.794Z,0
2017-09-22T02:52:19.575Z,0
2017-09-22T02:53:20.651Z,0
2017-09-22T02:54:21.383Z,0
2017-09-22T02:55:22.164Z,0
2017-09-22T02:56:22.893Z,0
2017-09-22T02:57:23.628Z,0
2017-09-22T02:58:24.654Z,0
2017-09-22T02:59:25.392Z,0
2017-09-22T03:00:26.176Z,0
2017-09-22T03:01:26.919Z,0
2017-09-22T03:02:27.635Z,0
2017-09-22T03:03:28.785Z,0
2017-09-22T03:04:29.618Z,0
2017-09-22T03:05:30.391Z,0
2017-09-22T03:06:31.159Z,0
2017-09-22T03:07:31.969Z,0
2017-09-22T03:08:33.014Z,0
2017-09-22T03:09:33.789Z,0
2017-09-22T03:10:34.517Z,0
2017-09-22T03:11:35.248Z,0
2017-09-22T03:12:35.968Z,0
2017-09-22T03:13:36.700Z,0
2017-09-22T03:14:37.428Z,0
2017-09-22T03:15:38.172Z,0
2017-09-22T03:16:38.965Z,0
2017-09-22T03:17:39.698Z,0
2017-09-22T03:18:40.730Z,0
2017-09-22T03:19:41.430Z,0
2017-09-22T03:20:42.149Z,0
2017-09-22T03:21:42.875Z,0
2017-09-22T03:22:43.622Z,0
2017-09-22T03:23:44.590Z,0
2017-09-22T03:24:45.393Z,0
2017-09-22T03:25:46.109Z,0
2017-09-22T03:26:46.838Z,0
2017-09-22T03:27:47.560Z,0
2017-09-22T03:28:48.698Z,0
2017-09-22T03:29:49.537Z,0
2017-09-22T03:30:50.312Z,0
2017-09-22T03:31:51.074Z,0
2017-09-22T03:32:51.810Z,0
2017-09-22T03:33:52.798Z,0
2017-09-22T03:34:53.540Z,0
2017-09-22T03:35:54.271Z,0
2017-09-22T03:36:55.061Z,0
2017-09-22T03:37:55.868Z,0
2017-09-22T03:38:57.000Z,0
2017-09-22T03:39:57.790Z,0
2017-09-22T03:40:58.603Z,0
2017-09-22T03:41:59.338Z,0
2017-09-22T03:43:00.063Z,0
2017-09-22T03:44:01.001Z,0
2017-09-22T03:45:01.783Z,0
2017-09-22T03:46:02.514Z,0
2017-09-22T03:47:03.324Z,0
2017-09-22T03:48:04.057Z,0
2017-09-22T03:49:05.077Z,0
2017-09-22T03:50:05.808Z,0
2017-09-22T03:51:06.625Z,0
2017-09-22T03:52:07.414Z,0
2017-09-22T03:53:08.144Z,0
2017-09-22T03:54:08.936Z,0
2017-09-22T03:55:09.741Z,0
2017-09-22T03:56:10.774Z,0
2017-09-22T03:57:11.513Z,0
2017-09-22T03:58:12.277Z,0
2017-09-22T03:59:13.045Z,0
2017-09-22T04:00:13.858Z,0
2017-09-22T04:01:14.960Z,0
2017-09-22T04:02:15.682Z,0
2017-09-22T04:03:16.413Z,0
2017-09-22T04:04:17.223Z,0
2017-09-22T04:05:17.954Z,0
2017-09-22T04:06:19.153Z,0
2017-09-22T04:07:19.883Z,0
2017-09-22T04:08:20.613Z,0
2017-09-22T04:09:21.342Z,0
2017-09-22T04:10:22.080Z,0
2017-09-22T04:11:23.194Z,0
2017-09-22T04:12:23.963Z,0
2017-09-22T04:13:24.734Z,0
2017-09-22T04:14:25.464Z,0
2017-09-22T04:15:26.194Z,0
2017-09-22T04:16:27.391Z,0
2017-09-22T04:17:28.163Z,0
2017-09-22T04:18:28.888Z,0
2017-09-22T04:19:29.622Z,0
2017-09-22T04:20:30.352Z,0
2017-09-22T04:21:31.475Z,0
2017-09-22T04:22:32.204Z,0
2017-09-22T04:23:32.938Z,0
2017-09-22T04:24:33.718Z,0
2017-09-22T04:25:34.534Z,0
2017-09-22T04:26:35.755Z,0
2017-09-22T04:27:36.535Z,0
2017-09-22T04:28:37.334Z,0
2017-09-22T04:29:38.056Z,0
2017-09-22T04:30:38.802Z,0
2017-09-22T04:31:39.988Z,0
2017-09-22T04:32:40.712Z,0
2017-09-22T04:33:41.442Z,0
2017-09-22T04:34:42.176Z,0
2017-09-22T04:35:42.910Z,0
2017-09-22T04:36:43.681Z,0
2017-09-22T04:37:44.821Z,0
2017-09-22T04:38:45.612Z,4
2017-09-22T04:39:46.359Z,4
2017-09-22T04:40:47.091Z,4
2017-09-22T04:41:47.922Z,4
2017-09-22T04:42:48.914Z,4
2017-09-22T04:43:49.644Z,8
2017-09-22T04:44:50.454Z,8
2017-09-22T04:45:51.269Z,8
2017-09-22T04:46:52.044Z,12
2017-09-22T04:47:53.138Z,12
2017-09-22T04:48:53.883Z,12
2017-09-22T04:49:54.621Z,16
2017-09-22T04:50:55.352Z,20
2017-09-22T04:51:56.088Z,24
2017-09-22T04:52:57.223Z,32
2017-09-22T04:53:58.032Z,36
2017-09-22T04:54:58.794Z,44
2017-09-22T04:55:59.562Z,48
2017-09-22T04:57:00.304Z,56
2017-09-22T04:58:03.067Z,68
2017-09-22T04:59:03.713Z,80
2017-09-22T05:00:04.529Z,96
2017-09-22T05:01:05.262Z,108
2017-09-22T05:02:06.012Z,124
2017-09-22T05:03:07.141Z,140
2017-09-22T05:04:07.881Z,160
2017-09-22T05:05:08.985Z,180
2017-09-22T05:06:09.722Z,204
2017-09-22T05:07:10.400Z,228
2017-09-22T05:08:11.522Z,256
2017-09-22T05:09:12.262Z,288
2017-09-22T05:10:13.003Z,320
2017-09-22T05:11:13.726Z,356
2017-09-22T05:12:14.473Z,388
2017-09-22T05:13:15.201Z,424
2017-09-22T05:14:16.012Z,460
2017-09-22T05:15:16.825Z,500
2017-09-22T05:16:17.628Z,540
2017-09-22T05:17:18.353Z,588
2017-09-22T05:18:19.292Z,636
2017-09-22T05:19:20.032Z,680
2017-09-22T05:20:20.772Z,732
2017-09-22T05:21:21.516Z,776
2017-09-22T05:22:22.254Z,824
2017-09-22T05:23:23.474Z,868
2017-09-22T05:24:24.238Z,924
2017-09-22T05:25:25.043Z,976
2017-09-22T05:26:25.772Z,1032
2017-09-22T05:27:26.507Z,1072
2017-09-22T05:28:27.712Z,1100
2017-09-22T05:29:28.444Z,1136
2017-09-22T05:30:29.264Z,1172
2017-09-22T05:31:30.075Z,1212
2017-09-22T05:32:30.862Z,1260
2017-09-22T05:33:31.983Z,1320
2017-09-22T05:34:32.715Z,1388
2017-09-22T05:35:33.549Z,1476
2017-09-22T05:36:34.283Z,1564
2017-09-22T05:37:35.057Z,1648
2017-09-22T05:38:36.011Z,1708
2017-09-22T05:39:36.742Z,1748
2017-09-22T05:40:37.482Z,1772
2017-09-22T05:41:38.229Z,1796
2017-09-22T05:42:38.964Z,1828
2017-09-22T05:43:39.765Z,1868
2017-09-22T05:44:40.577Z,1904
2017-09-22T05:45:41.636Z,1940
2017-09-22T05:46:42.403Z,1980
2017-09-22T05:47:43.147Z,2012
2017-09-22T05:48:43.944Z,2068
2017-09-22T05:49:44.696Z,2140
2017-09-22T05:50:45.473Z,2204
2017-09-22T05:51:46.217Z,2288
2017-09-22T05:52:47.012Z,2372
2017-09-22T05:53:47.755Z,2452
2017-09-22T05:54:48.553Z,2544
2017-09-22T05:55:49.605Z,2660
2017-09-22T05:56:50.283Z,2748
2017-09-22T05:57:51.027Z,2812
2017-09-22T05:58:51.749Z,2884
2017-09-22T05:59:52.569Z,2972
2017-09-22T06:00:53.682Z,3112
2017-09-22T06:01:54.453Z,3244
2017-09-22T06:02:55.209Z,3312
2017-09-22T06:03:56.007Z,3380
2017-09-22T06:04:56.733Z,3416
2017-09-22T06:05:57.774Z,3476
2017-09-22T06:06:58.572Z,3600
2017-09-22T06:07:59.303Z,3716
2017-09-22T06:09:00.036Z,3800
2017-09-22T06:10:00.834Z,3828
2017-09-22T06:11:01.963Z,3804
2017-09-22T06:12:02.698Z,3780
2017-09-22T06:13:03.464Z,3768
2017-09-22T06:14:04.192Z,3744
2017-09-22T06:15:04.914Z,3740
2017-09-22T06:16:06.003Z,3740
2017-09-22T06:17:06.739Z,3752
2017-09-22T06:18:07.472Z,3776
2017-09-22T06:19:08.218Z,3812
2017-09-22T06:20:09.026Z,3856
2017-09-22T06:21:10.537Z,3944
2017-09-22T06:22:11.285Z,4036
2017-09-22T06:23:12.077Z,4124
2017-09-22T06:24:12.867Z,4228
2017-09-22T06:25:13.677Z,4384
2017-09-22T06:26:14.763Z,4540
2017-09-22T06:27:15.502Z,4652
2017-09-22T06:28:16.243Z,4740
2017-09-22T06:29:17.050Z,4876
2017-09-22T06:30:17.793Z,5040
2017-09-22T06:31:18.934Z,5196
2017-09-22T06:32:19.757Z,5288
2017-09-22T06:33:20.513Z,5368
2017-09-22T06:34:21.238Z,5444
2017-09-22T06:35:21.968Z,5500
2017-09-22T06:36:22.720Z,5636
2017-09-22T06:37:23.421Z,5820
2017-09-22T06:38:24.154Z,5964
2017-09-22T06:39:25.128Z,6096
2017-09-22T06:40:25.874Z,6200
2017-09-22T06:41:26.663Z,6308
2017-09-22T06:42:27.407Z,6416
2017-09-22T06:43:28.191Z,6440
2017-09-22T06:44:29.337Z,6504
2017-09-22T06:45:30.112Z,6612
2017-09-22T06:46:30.881Z,6776
2017-09-22T06:47:31.689Z,6952
2017-09-22T06:48:32.362Z,7036
2017-09-22T06:49:33.466Z,7096
2017-09-22T06:50:34.233Z,7140
2017-09-22T06:51:35.058Z,7140
2017-09-22T06:52:35.857Z,7076
2017-09-22T06:53:37.607Z,7012
2017-09-22T06:54:39.249Z,7012
2017-09-22T06:55:41.293Z,7068
2017-09-22T06:56:42.204Z,7172
2017-09-22T06:57:42.953Z,7292
2017-09-22T06:58:43.750Z,7484
2017-09-22T06:59:44.545Z,7812
2017-09-22T07:00:45.335Z,8148
2017-09-22T07:01:46.566Z,8292
2017-09-22T07:02:47.303Z,8356
2017-09-22T07:03:48.031Z,8484
2017-09-22T07:04:48.772Z,8608
2017-09-22T07:05:49.514Z,8636
2017-09-22T07:06:50.504Z,8656
2017-09-22T07:07:51.359Z,8724
2017-09-22T07:08:52.116Z,8852
2017-09-22T07:09:52.924Z,9016
2017-09-22T07:10:53.673Z,9228
2017-09-22T07:11:54.715Z,9508
2017-09-22T07:12:55.427Z,9788
2017-09-22T07:13:56.280Z,10004
2017-09-22T07:14:56.992Z,10212
2017-09-22T07:15:57.773Z,10548
2017-09-22T07:16:59.001Z,10896
2017-09-22T07:17:59.816Z,11076
2017-09-22T07:19:00.641Z,11200
2017-09-22T07:20:01.453Z,11460
2017-09-22T07:21:02.198Z,11808
2017-09-22T07:22:03.382Z,12064
2017-09-22T07:23:04.157Z,12240
2017-09-22T07:24:04.955Z,12316
2017-09-22T07:25:05.773Z,12260
2017-09-22T07:26:06.510Z,12088
2017-09-22T07:27:07.664Z,11792
2017-09-22T07:28:08.498Z,11440
2017-09-22T07:29:09.284Z,11100
2017-09-22T07:30:10.020Z,10852
2017-09-22T07:31:10.754Z,10648
2017-09-22T07:32:11.896Z,10420
2017-09-22T07:33:12.698Z,10316
2017-09-22T07:34:13.442Z,10464
2017-09-22T07:35:14.224Z,10788
2017-09-22T07:36:14.964Z,11100
2017-09-22T07:37:16.053Z,11404
2017-09-22T07:38:16.787Z,11692
2017-09-22T07:39:17.524Z,11756
2017-09-22T07:40:18.339Z,11708
2017-09-22T07:41:19.138Z,11712
2017-09-22T07:42:20.342Z,11776
2017-09-22T07:43:21.091Z,11904
2017-09-22T07:44:21.824Z,12068
2017-09-22T07:45:22.554Z,12272
2017-09-22T07:46:23.288Z,12568
2017-09-22T07:47:24.030Z,12964
2017-09-22T07:48:24.768Z,13236
2017-09-22T07:49:25.814Z,13348
2017-09-22T07:50:26.623Z,13612
2017-09-22T07:51:27.433Z,13824
2017-09-22T07:52:28.182Z,13788
2017-09-22T07:53:28.920Z,13792
2017-09-22T07:54:29.668Z,13792
2017-09-22T07:55:30.736Z,13744
2017-09-22T07:56:31.473Z,13876
2017-09-22T07:57:32.217Z,14064
2017-09-22T07:58:32.950Z,14192
2017-09-22T07:59:33.761Z,14264
2017-09-22T08:00:34.750Z,14420
2017-09-22T08:01:35.490Z,14588
2017-09-22T08:02:36.229Z,14724
2017-09-22T08:03:37.033Z,14852
2017-09-22T08:04:37.772Z,15104
2017-09-22T08:05:38.867Z,15528
2017-09-22T08:06:39.542Z,15940
2017-09-22T08:07:40.285Z,16220
2017-09-22T08:08:41.023Z,16224
2017-09-22T08:09:41.804Z,16168
2017-09-22T08:10:42.794Z,16212
2017-09-22T08:11:43.599Z,16336
2017-09-22T08:12:44.333Z,16512
2017-09-22T08:13:45.088Z,16760
2017-09-22T08:14:45.888Z,17192
2017-09-22T08:15:47.074Z,17512
2017-09-22T08:16:47.817Z,17800
2017-09-22T08:17:48.561Z,18240
2017-09-22T08:18:49.334Z,18528
2017-09-22T08:19:50.071Z,18848
2017-09-22T08:20:51.124Z,19360
2017-09-22T08:21:51.904Z,19936
2017-09-22T08:22:52.643Z,20288
2017-09-22T08:23:53.380Z,20352
2017-09-22T08:24:54.115Z,20320
2017-09-22T08:25:55.223Z,20320
2017-09-22T08:26:55.965Z,20512
2017-09-22T08:27:56.693Z,20928
2017-09-22T08:28:57.433Z,21536
2017-09-22T08:29:58.236Z,22336
2017-09-22T08:30:59.374Z,23392
2017-09-22T08:32:00.116Z,26432
2017-09-22T08:33:00.911Z,37632
2017-09-22T08:34:01.644Z,37696
2017-09-22T08:35:02.465Z,37056
2017-09-22T08:36:03.682Z,37920
2017-09-22T08:37:05.182Z,32864
2017-09-22T08:38:06.427Z,30624
2017-09-22T08:39:07.732Z,28928
2017-09-22T08:40:08.689Z,31616
2017-09-22T08:41:09.706Z,28256
2017-09-22T08:42:10.515Z,27328
2017-09-22T08:43:11.253Z,26880
2017-09-22T08:44:11.992Z,26720
2017-09-22T08:45:12.793Z,27168
2017-09-22T08:46:13.788Z,27264
2017-09-22T08:47:14.576Z,27744
2017-09-22T08:48:15.317Z,29120
2017-09-22T08:49:16.114Z,31072
2017-09-22T08:50:16.864Z,30688
2017-09-22T08:51:17.899Z,29344
2017-09-22T08:52:18.644Z,30432
2017-09-22T08:53:19.388Z,32192
2017-09-22T08:54:20.163Z,30784
2017-09-22T08:55:20.914Z,30176
2017-09-22T08:56:21.853Z,28800
2017-09-22T08:57:22.601Z,29216
2017-09-22T08:58:23.422Z,28544
2017-09-22T08:59:24.188Z,28352
2017-09-22T09:00:25.009Z,28928
2017-09-22T09:01:26.258Z,29216
2017-09-22T09:02:27.086Z,29152
2017-09-22T09:03:27.887Z,29440
2017-09-22T09:04:28.689Z,29952
2017-09-22T09:05:29.489Z,31328
2017-09-22T09:06:30.299Z,32768
2017-09-22T09:07:31.116Z,35680
2017-09-22T09:08:31.902Z,40992
2017-09-22T09:09:32.634Z,43360
2017-09-22T09:10:33.782Z,42624
2017-09-22T09:11:34.526Z,40288
2017-09-22T09:12:35.336Z,41856
2017-09-22T09:13:36.172Z,33696
2017-09-22T09:14:36.968Z,31392
2017-09-22T09:15:38.112Z,30816
2017-09-22T09:16:38.854Z,30464
2017-09-22T09:17:39.604Z,31584
2017-09-22T09:18:40.420Z,31136
2017-09-22T09:19:41.227Z,30464
2017-09-22T09:20:42.033Z,29024
2017-09-22T09:21:42.773Z,28352
2017-09-22T09:22:43.929Z,28256
2017-09-22T09:23:44.676Z,28640
2017-09-22T09:24:45.428Z,28896
2017-09-22T09:25:46.214Z,28992
2017-09-22T09:26:48.364Z,29216
2017-09-22T09:27:50.609Z,29696
2017-09-22T09:28:51.942Z,30400
2017-09-22T09:29:52.672Z,32160
2017-09-22T09:30:53.474Z,40928
2017-09-22T09:31:54.215Z,39360
2017-09-22T09:32:55.037Z,58592
2017-09-22T09:33:56.085Z,48096
2017-09-22T09:34:56.891Z,33856
2017-09-22T09:35:57.708Z,31328
2017-09-22T09:36:58.516Z,30752
2017-09-22T09:37:59.258Z,31008
2017-09-22T09:39:00.064Z,31936
2017-09-22T09:40:00.808Z,33984
2017-09-22T09:41:01.674Z,36448
2017-09-22T09:42:02.409Z,39328
2017-09-22T09:43:03.154Z,45280
2017-09-22T09:44:04.208Z,40544
2017-09-22T09:45:05.015Z,38144
2017-09-22T09:46:05.760Z,37088
2017-09-22T09:47:06.515Z,37568
2017-09-22T09:48:07.335Z,37248
2017-09-22T09:49:08.072Z,37664
2017-09-22T09:50:09.075Z,37056
2017-09-22T09:51:09.854Z,36256
2017-09-22T09:52:10.626Z,35424
2017-09-22T09:53:11.445Z,35680
2017-09-22T09:54:12.247Z,37920
2017-09-22T09:55:12.984Z,42368
2017-09-22T09:56:14.025Z,40832
2017-09-22T09:57:14.785Z,39136
2017-09-22T09:58:15.938Z,35296
2017-09-22T09:59:16.767Z,33216
2017-09-22T10:00:17.484Z,32896
2017-09-22T10:01:18.243Z,32960
2017-09-22T10:02:19.049Z,32800
2017-09-22T10:03:20.194Z,31328
2017-09-22T10:04:21.684Z,30016
2017-09-22T10:05:22.595Z,29280
2017-09-22T10:06:23.414Z,28960
2017-09-22T10:07:24.153Z,29184
2017-09-22T10:08:25.293Z,30976
2017-09-22T10:09:26.033Z,29856
2017-09-22T10:10:26.853Z,28064
2017-09-22T10:11:27.599Z,27648
2017-09-22T10:12:28.374Z,28032
2017-09-22T10:13:29.212Z,27840
2017-09-22T10:14:30.191Z,27584
2017-09-22T10:15:31.027Z,27488
2017-09-22T10:16:31.813Z,27712
2017-09-22T10:17:32.623Z,27968
2017-09-22T10:18:33.353Z,28384
2017-09-22T10:19:34.094Z,28928
2017-09-22T10:20:34.848Z,29504
2017-09-22T10:21:35.625Z,30240
2017-09-22T10:22:36.367Z,31232
2017-09-22T10:23:37.117Z,32832
2017-09-22T10:24:37.933Z,34976
2017-09-22T10:25:38.679Z,33568
2017-09-22T10:26:39.781Z,32928
2017-09-22T10:27:40.532Z,32960
2017-09-22T10:28:41.274Z,33120
2017-09-22T10:29:42.013Z,33280
2017-09-22T10:30:42.781Z,34272
2017-09-22T10:31:43.846Z,40672
2017-09-22T10:32:44.651Z,44544
2017-09-22T10:33:45.475Z,56160
2017-09-22T10:34:46.222Z,62720
2017-09-22T10:35:46.957Z,46496
2017-09-22T10:36:48.098Z,41856
2017-09-22T10:37:48.918Z,41504
2017-09-22T10:38:49.674Z,49888
2017-09-22T10:39:50.413Z,37440
2017-09-22T10:40:51.153Z,42336
2017-09-22T10:41:52.109Z,42944
2017-09-22T10:42:52.914Z,46240
2017-09-22T10:43:53.733Z,41504
2017-09-22T10:44:54.473Z,45504
2017-09-22T10:45:55.213Z,31744
2017-09-22T10:46:56.308Z,28896
2017-09-22T10:47:57.139Z,27744
2017-09-22T10:48:57.877Z,27456
2017-09-22T10:49:58.617Z,27680
2017-09-22T10:50:59.362Z,28384
2017-09-22T10:52:00.562Z,29344
2017-09-22T10:53:01.297Z,30752
2017-09-22T10:54:02.126Z,32768
2017-09-22T10:55:02.908Z,49120
2017-09-22T10:56:03.700Z,71936
2017-09-22T10:57:04.453Z,67872
2017-09-22T10:58:05.195Z,61760
2017-09-22T10:59:06.402Z,64704
2017-09-22T11:00:07.137Z,56864
2017-09-22T11:01:07.885Z,45056
2017-09-22T11:02:08.677Z,69376
2017-09-22T11:03:09.458Z,75104
2017-09-22T11:04:10.600Z,73344
2017-09-22T11:05:11.386Z,79104
2017-09-22T11:06:12.182Z,67584
2017-09-22T11:07:12.924Z,72800
2017-09-22T11:08:13.746Z,74400
2017-09-22T11:09:14.887Z,54688
2017-09-22T11:10:15.693Z,70784
2017-09-22T11:11:16.428Z,62208
2017-09-22T11:12:17.163Z,60128
2017-09-22T11:13:17.904Z,59584
2017-09-22T11:14:19.044Z,56864
2017-09-22T11:15:19.793Z,34400
2017-09-22T11:16:20.617Z,56384
2017-09-22T11:17:21.423Z,38688
2017-09-22T11:18:22.162Z,34848
2017-09-22T11:19:23.151Z,69152
2017-09-22T11:20:23.892Z,71456
2017-09-22T11:21:24.636Z,78176
2017-09-22T11:22:25.385Z,34112
2017-09-22T11:23:26.196Z,32512
2017-09-22T11:24:27.194Z,33792
2017-09-22T11:25:27.935Z,78720
2017-09-22T11:26:28.748Z,31232
2017-09-22T11:27:29.492Z,31296
2017-09-22T11:28:30.241Z,33504
2017-09-22T11:29:31.233Z,30208
2017-09-22T11:30:31.978Z,41792
2017-09-22T11:31:32.723Z,73664
2017-09-22T11:32:33.468Z,29024
2017-09-22T11:33:34.208Z,27072
2017-09-22T11:34:34.953Z,26432
2017-09-22T11:35:35.702Z,26400
2017-09-22T11:36:36.452Z,45152
2017-09-22T11:37:37.192Z,48800
2017-09-22T11:38:37.932Z,72352
2017-09-22T11:39:38.976Z,64032
2017-09-22T11:40:39.790Z,60384
2017-09-22T11:41:40.582Z,55264
2017-09-22T11:42:41.328Z,52544
2017-09-22T11:43:42.139Z,27744
2017-09-22T11:44:43.084Z,25856
2017-09-22T11:45:43.893Z,24160
2017-09-22T11:46:44.647Z,23744
2017-09-22T11:47:45.447Z,23488
2017-09-22T11:48:46.190Z,23392
2017-09-22T11:49:47.270Z,23360
2017-09-22T11:50:48.018Z,23456
2017-09-22T11:51:48.826Z,23808
2017-09-22T11:52:49.628Z,24000
2017-09-22T11:53:50.357Z,24064
2017-09-22T11:54:51.434Z,24224
2017-09-22T11:55:52.246Z,24512
2017-09-22T11:56:52.943Z,25216
2017-09-22T11:57:53.756Z,25824
2017-09-22T11:58:54.512Z,31744
2017-09-22T11:59:55.663Z,28608
2017-09-22T12:00:56.493Z,26624
2017-09-22T12:01:57.245Z,27808
2017-09-22T12:02:58.040Z,27648
2017-09-22T12:03:58.841Z,27584
2017-09-22T12:05:00.155Z,29280
2017-09-22T12:06:00.925Z,30976
2017-09-22T12:07:01.656Z,29056
2017-09-22T12:08:02.402Z,33376
2017-09-22T12:09:03.226Z,38656
2017-09-22T12:10:03.983Z,34144
2017-09-22T12:11:04.729Z,38400
2017-09-22T12:12:05.970Z,45280
2017-09-22T12:13:06.747Z,42400
2017-09-22T12:14:07.494Z,35072
2017-09-22T12:15:08.305Z,31936
2017-09-22T12:16:09.098Z,54176
2017-09-22T12:17:10.126Z,73408
2017-09-22T12:18:10.861Z,69600
2017-09-22T12:19:11.612Z,66176
2017-09-22T12:20:12.347Z,62048
2017-09-22T12:21:13.092Z,63840
2017-09-22T12:22:14.263Z,67936
2017-09-22T12:23:15.025Z,71232
2017-09-22T12:24:15.780Z,69536
2017-09-22T12:25:16.576Z,65920
2017-09-22T12:26:17.414Z,70464
2017-09-22T12:27:18.223Z,67744
2017-09-22T12:28:18.975Z,64672
2017-09-22T12:29:19.777Z,62624
2017-09-22T12:30:20.521Z,59200
2017-09-22T12:31:21.562Z,55392
2017-09-22T12:32:22.303Z,53472
2017-09-22T12:33:23.052Z,54048
2017-09-22T12:34:23.797Z,55008
2017-09-22T12:35:24.658Z,55392
2017-09-22T12:36:25.866Z,56128
2017-09-22T12:37:26.609Z,55648
2017-09-22T12:38:27.403Z,55712
2017-09-22T12:39:28.144Z,41824
2017-09-22T12:40:28.897Z,23392
2017-09-22T12:41:29.643Z,19840
2017-09-22T12:42:30.783Z,20992
2017-09-22T12:43:31.529Z,21536
2017-09-22T12:44:32.342Z,18028
2017-09-22T12:45:33.098Z,14424
2017-09-22T12:46:33.906Z,15004
2017-09-22T12:47:34.849Z,14988
2017-09-22T12:48:35.596Z,15428
2017-09-22T12:49:36.340Z,14828
2017-09-22T12:50:37.098Z,13864
2017-09-22T12:51:37.893Z,14124
2017-09-22T12:52:38.834Z,14732
2017-09-22T12:53:39.578Z,13700
2017-09-22T12:54:40.393Z,13772
2017-09-22T12:55:41.134Z,13436
2017-09-22T12:56:41.966Z,12232
2017-09-22T12:57:43.064Z,12200
2017-09-22T12:58:43.813Z,12468
2017-09-22T12:59:44.598Z,13220
2017-09-22T13:00:45.409Z,15976
2017-09-22T13:01:46.203Z,14104
2017-09-22T13:02:47.353Z,13264
2017-09-22T13:03:48.093Z,12640
2017-09-22T13:04:48.848Z,12352
2017-09-22T13:05:49.640Z,11888
2017-09-22T13:06:50.383Z,11428
2017-09-22T13:07:51.386Z,11384
2017-09-22T13:08:52.139Z,11432
2017-09-22T13:09:52.945Z,11868
2017-09-22T13:10:53.763Z,13088
2017-09-22T13:11:54.513Z,13192
2017-09-22T13:12:55.663Z,12024
2017-09-22T13:13:56.403Z,12044
2017-09-22T13:14:57.153Z,12236
2017-09-22T13:15:57.960Z,12648
2017-09-22T13:16:58.716Z,14944
2017-09-22T13:17:59.763Z,17592
2017-09-22T13:19:00.523Z,17016
2017-09-22T13:20:01.292Z,21568
2017-09-22T13:21:02.091Z,25152
2017-09-22T13:22:02.849Z,21088
2017-09-22T13:23:04.071Z,14644
2017-09-22T13:24:04.873Z,15408
2017-09-22T13:25:05.702Z,16368
2017-09-22T13:26:06.506Z,13200
2017-09-22T13:27:07.252Z,13672
2017-09-22T13:28:08.517Z,14288
2017-09-22T13:29:09.263Z,13384
2017-09-22T13:30:10.000Z,13628
2017-09-22T13:31:10.755Z,13368
2017-09-22T13:32:11.571Z,13120
2017-09-22T13:33:12.518Z,13280
2017-09-22T13:34:13.327Z,12832
2017-09-22T13:35:14.163Z,12924
2017-09-22T13:36:14.934Z,12840
2017-09-22T13:37:15.683Z,12764
2017-09-22T13:38:16.687Z,11904
2017-09-22T13:39:17.432Z,11504
2017-09-22T13:40:18.188Z,11456
2017-09-22T13:41:18.994Z,11140
2017-09-22T13:42:19.737Z,11124
2017-09-22T13:43:20.785Z,11348
2017-09-22T13:44:21.627Z,11620
2017-09-22T13:45:22.434Z,12336
2017-09-22T13:46:23.242Z,13072